Monday, December 10, 2018, 9:29 PM EST
Back to Local

KWRI, Mcguire Air Force Base

Location: Trenton, NJ, United States Lat: 40.017
Local Time: 9:29 PM EST ( 2:29 GMT) Lon: -74.6
Time Zone: US/Eastern Elev: 134 ft

Show me the last for .
Show Decoded

2018-12-10 20:56 METAR KWRI 110156Z 19004KT 10SM FEW250 M05/M07 A3013 RMK AO2A SLP204 T10471070
                 RVRNO $ =
2018-12-10 19:56 METAR KWRI 110056Z 00000KT 10SM FEW250 M03/M06 A3013 RMK AO2A SLP205 T10261064
                 RVRNO $ =
2018-12-10 18:56 METAR KWRI 102356Z 00000KT 10SM FEW250 M03/M07 A3011 RMK AO2A SLP198 T10351070
                 10041 21037 50005 RVRNO $ =
2018-12-10 17:56 METAR KWRI 102256Z 00000KT 10SM FEW250 M01/M07 A3011 RMK AO2A SLP198 T10081066
                 RVRNO $ =
2018-12-10 16:56 METAR KWRI 102156Z 01003KT 10SM FEW250 M01/M06 A3010 RMK AO2A SLP194 T10111065
                 RVRNO $ =
2018-12-10 15:56 METAR KWRI 102056Z 35004KT 10SM FEW250 02/M06 A3009 RMK AO2A SLP191 T00241060
                 53004 RVRNO $ =
2018-12-10 14:56 METAR KWRI 101956Z 33009KT 10SM SCT250 04/M06 A3008 RMK AO2A SLP187 T00361064
                 RVRNO $ =
2018-12-10 13:56 METAR KWRI 101856Z 36006KT 10SM CLR 04/M07 A3008 RMK AO2A SLP187 T00391067 RVRNO
                 $ =
2018-12-10 12:56 METAR KWRI 101756Z 01008KT 10SM CLR 04/M06 A3008 RMK AO2A SLP187 T00381065 10038
                 21070 57013 RVRNO $ =
2018-12-10 11:56 METAR KWRI 101656Z 01013KT 10SM CLR 03/M06 A3009 RMK AO2A SLP191 T00331064 RVRNO
                 $ =
2018-12-10 10:56 METAR KWRI 101556Z 01014KT 10SM CLR 03/M06 A3012 RMK AO2A SLP201 T00261060 RVRNO
                 $ =
2018-12-10 09:56 METAR KWRI 101456Z 36009KT 10SM CLR 01/M06 A3012 RMK AO2A SLP201 T00081063 53011
                 RVRNO $ =
2018-12-10 08:56 METAR KWRI 101356Z 35007KT 10SM CLR M01/M07 A3010 RMK AO2A SLP194 T10141071
                 RVRNO $ =
2018-12-10 07:56 METAR KWRI 101256Z 35006KT 10SM CLR M04/M08 A3008 RMK AO2A SLP187 T10431081
                 RVRNO $ =
2018-12-10 06:56 METAR KWRI 101156Z 34005KT 10SM CLR M06/M09 A3009 RMK AO2A SLP191 T10631095
                 11031 21069 52015 RVRNO $ =
2018-12-10 05:56 METAR KWRI 101056Z 35006KT 10SM CLR M06/M10 A3006 RMK AO2A SLP181 T10631097
                 RVRNO $ =
2018-12-10 04:56 METAR KWRI 100956Z 35006KT 10SM FEW210 M05/M09 A3005 RMK AO2A SLP177 T10551091
                 RVRNO $ =
2018-12-10 03:56 METAR KWRI 100856Z AUTO 35007KT M M CLR M05/M09 A3005 RMK AO2 SLP177 T10521086
                 55013 RVRNO $ =
2018-12-10 02:56 METAR KWRI 100756Z 34006KT 10SM CLR M05/M09 A3007 RMK AO2A SLP184 T10481089
                 RVRNO $ =
2018-12-10 01:56 METAR KWRI 100656Z AUTO 33007KT M M CLR M05/M09 A3007 RMK AO2 SLP184 T10501086
                 RVRNO $ =
2018-12-10 00:56 METAR KWRI 100556Z 33004KT 10SM CLR M03/M07 A3009 RMK AO2A SLP191 T10311074
                 11007 21036 57022 RVRNO $ =
2018-12-09 23:56 METAR KWRI 100456Z 35003KT 10SM CLR M02/M07 A3011 RMK AO2A SLP197 T10251070
                 400131050 RVRNO $ =
2018-12-09 22:56 METAR KWRI 100356Z COR AUTO 34006KT 10SM FEW180 M02/M06 A3012 RMK AO2 SLP201
                 T10211058 RVRNO $ COR 0407 =
2018-12-09 21:56 METAR KWRI 100256Z 35005KT 10SM OVC190 M02/M04 A3015 RMK AO2A SLP211 T10191044
                 57025 RVRNO $ =

Support USWX by starting your Amazon purchase here.